Latest Coastal Weather Observations for Norah Head

IDN60701

Issued at 2:41 pm EST Saturday 30 May 2015 (issued every 10 minutes, with the page automatically refreshed every 10 minutes)

About coastal observations | Map of coastal stations | Coastal observations for NSW | Marine services | Other Formats
Station Details ID: 061366 Name: NORAH HEAD AWS Lat: -33.28 Lon: 151.58 Height: 18.8 m
Data from the previous 72 hours. | See also: Recent months at Norah Head
Date/Time
EST
Temp

°C
Wind Pressure Rain
since 9am
mm
Weather Cloud Vis
km
Sea
Height
m
Swell
Dir
 
Speed
knots
Gust
knots
hPa Trend Height
m
Period
s
Dir
30/02:30pm 19.1 WNW 3 8 1017.7 - 0.0 - - - - - - -
30/02:00pm 19.6 WNW 4 8 1018.0 - 0.0 - - - - - - -
30/01:30pm 19.3 WNW 2 5 1018.2 - 0.0 - - - - - - -
30/01:00pm 18.7 S 2 3 1018.8 - 0.0 - - - - - - -
30/12:30pm 18.8 W 1 3 1019.1 - 0.0 - - - - - - -
30/12:00pm 18.1 NW 2 5 1019.8 - 0.0 - - - - - - -
30/11:30am 18.4 N 4 5 1020.3 - 0.0 - - - - - - -
30/11:00am 18.6 NNW 4 5 1020.6 - 0.0 - - - - - - -
30/10:30am 17.5 N 4 7 1021.1 - 0.0 - - - - - - -
30/10:00am 16.7 NW 2 3 1021.7 - 0.0 - - - - - - -
30/09:30am 15.7 NW 1 4 1022.0 - 0.0 - - - - - - -
30/09:00am 15.5 W 2 4 1022.1 - 0.2 - - - - - - -
30/08:30am 15.7 W 3 4 1021.9 - 0.2 - - - - - - -
30/08:00am 15.1 W 2 3 1022.2 - 0.2 - - - - - - -
30/07:30am 14.1 W 4 5 1022.1 - 0.2 - - - - - - -
30/07:00am 13.9 WSW 5 5 1021.9 - 0.2 - - - - - - -
30/06:30am 13.8 WSW 5 6 1021.5 - 0.2 - - - - - - -
30/06:00am 14.1 WSW 6 7 1021.6 - 0.2 - - - - - - -
30/05:30am 13.7 W 6 8 1021.5 - 0.2 - - - - - - -
30/05:00am 13.9 WSW 6 7 1021.2 - 0.2 - - - - - - -
30/04:30am 13.9 W 6 7 1021.3 - 0.2 - - - - - - -
30/04:00am 14.0 W 6 8 1021.7 - 0.2 - - - - - - -
30/03:30am 13.9 W 6 8 1021.5 - 0.2 - - - - - - -
30/03:00am 14.1 WSW 5 7 1021.6 - 0.2 - - - - - - -
30/02:30am 14.0 W 6 7 1021.7 - 0.2 - - - - - - -
30/02:00am 14.5 WSW 4 5 1021.8 - 0.2 - - - - - - -
30/01:30am 14.3 W 3 4 1021.9 - 0.2 - - - - - - -
30/01:00am 14.2 NW 2 3 1022.0 - 0.2 - - - - - - -
30/12:30am 14.7 W 6 8 1022.2 - 0.2 - - - - - - -
30/12:00am 14.8 W 6 9 1022.2 - 0.2 - - - - - - -
 
Date/Time
EST
Temp

°C
Wind Pressure Rain
since 9am
mm
Weather Cloud Vis
km
Sea
Height
m
Swell
Dir
 
Speed
knots
Gust
knots
hPa Trend Height
m
Period
s
Dir
29/11:30pm 14.7 W 4 6 1022.2 - 0.2 - - - - - - -
29/11:00pm 15.4 WNW 4 6 1022.4 - 0.2 - - - - - - -
29/10:30pm 15.9 WNW 3 6 1022.1 - 0.2 - - - - - - -
29/10:00pm 16.3 WNW 3 5 1022.3 - 0.2 - - - - - - -
29/09:30pm 16.7 W 4 5 1022.2 - 0.2 - - - - - - -
29/09:00pm 16.7 WNW 3 5 1022.1 - 0.2 - - - - - - -
29/08:30pm 17.0 W 4 5 1022.3 - 0.2 - - - - - - -
29/08:00pm 17.0 WNW 3 4 1022.4 - 0.2 - - - - - - -
29/07:30pm 17.1 WNW 2 3 1022.1 - 0.2 - - - - - - -
29/07:00pm 16.9 CALM 0 0 1021.9 - 0.2 - - - - - - -
29/06:30pm 17.1 CALM 0 0 1021.6 - 0.2 - - - - - - -
29/06:00pm 17.5 CALM 0 0 1021.5 - 0.2 - - - - - - -
29/05:30pm 17.6 SSW 2 3 1021.1 - 0.2 - - - - - - -
29/05:00pm 17.9 SSE 1 2 1020.7 - 0.2 - - - - - - -
29/04:30pm 18.4 CALM 0 1 1020.8 - 0.2 - - - - - - -
29/04:00pm 18.5 NW 1 3 1020.4 - 0.2 - - - - - - -
29/03:30pm 18.7 NNW 5 7 1020.1 - 0.2 - - - - - - -
29/03:00pm 18.6 NW 2 3 1020.0 - 0.2 - - - - - - -
29/02:30pm 18.5 NNW 7 9 1019.9 - 0.2 - - - - - - -
29/02:00pm 19.1 NNW 6 8 1019.9 - 0.2 - - - - - - -
29/01:30pm 18.4 NNW 6 10 1019.7 - 0.2 - - - - - - -
29/01:00pm 18.2 NW 4 7 1019.7 - 0.2 - - - - - - -
29/12:30pm 18.3 NNW 7 8 1019.9 - 0.2 - - - - - - -
29/12:00pm 17.7 NW 5 8 1020.3 - 0.2 - - - - - - -
29/11:30am 17.5 NNW 8 10 1020.8 - 0.2 - - - - - - -
29/11:00am 17.7 NW 5 8 1020.8 - 0.2 - - - - - - -
29/10:30am 17.4 NW 4 6 1021.0 - 0.2 - - - - - - -
29/10:00am 16.9 NW 5 7 1020.9 - 0.0 - - - - - - -
29/09:30am 17.0 NW 6 8 1021.0 - 0.0 - - - - - - -
29/09:00am 16.7 NW 7 9 1020.9 - 0.4 Rain - - - - - -
29/08:30am 17.2 NW 6 10 1020.8 - 0.2 - - - - - - -
29/08:00am 17.0 NW 4 7 1020.6 - 0.2 - - - - - - -
29/07:30am 16.7 WNW 4 5 1020.5 - 0.2 - - - - - - -
29/07:00am 16.5 NW 4 5 1020.1 - 0.2 - - - - - - -
29/06:30am 16.5 WNW 4 6 1019.7 - 0.2 - - - - - - -
29/06:00am 17.0 NW 3 5 1019.5 - 0.2 - - - - - - -
29/05:30am 16.9 NNW 5 8 1018.9 - 0.2 - - - - - - -
29/05:00am 17.0 N 11 12 1018.7 - 0.2 - - - - - - -
29/04:30am 16.9 N 12 14 1018.6 - 0.2 - - - - - - -
29/04:00am 16.7 N 12 14 1018.8 - 0.2 - - - - - - -
29/03:30am 16.6 N 13 14 1019.1 - 0.2 - - - - - - -
29/03:00am 16.6 N 10 11 1019.4 - 0.0 - - - - - - -
29/02:30am 16.8 NNW 8 10 1019.5 - 0.0 - - - - - - -
29/02:00am 17.2 NNW 7 10 1019.7 - 0.0 - - - - - - -
29/01:30am 17.1 N 9 10 1019.7 - 0.0 - - - - - - -
29/01:00am 17.2 NNW 7 8 1020.1 - 0.0 - - - - - - -
29/12:30am 17.0 N 8 9 1020.0 - 0.0 - - - - - - -
29/12:00am 17.1 NNW 6 8 1020.3 - 0.0 - - - - - - -
 
Date/Time
EST
Temp

°C
Wind Pressure Rain
since 9am
mm
Weather Cloud Vis
km
Sea
Height
m
Swell
Dir
 
Speed
knots
Gust
knots
hPa Trend Height
m
Period
s
Dir
28/11:30pm 16.7 NNW 5 7 1020.7 - 0.0 - - - - - - -
28/11:00pm 17.0 NNW 6 7 1020.8 - 0.0 - - - - - - -
28/10:30pm 16.7 NNW 6 8 1021.2 - 0.0 - - - - - - -
28/10:00pm 16.6 NNW 5 7 1021.2 - 0.0 - - - - - - -
28/09:30pm 16.9 NNW 8 10 1021.2 - 0.0 - - - - - - -
28/09:00pm 16.4 NW 6 8 1021.2 - 0.0 - - - - - - -
28/08:30pm 16.6 NW 6 8 1021.4 - 0.0 - - - - - - -
28/08:00pm 17.0 NNW 7 9 1021.2 - 0.0 - - - - - - -
28/07:30pm 17.2 NNW 8 11 1021.1 - 0.0 - - - - - - -
28/07:00pm 17.1 NNW 6 9 1021.0 - 0.0 - - - - - - -
28/06:30pm 17.3 NNW 6 9 1021.0 - 0.0 - - - - - - -
28/06:00pm 17.5 NW 6 8 1020.7 - 0.0 - - - - - - -
28/05:30pm 17.9 NNW 5 8 1020.8 - 0.0 - - - - - - -
28/05:00pm 18.4 NNW 8 10 1020.5 - 0.0 - - - - - - -
28/04:30pm 19.1 N 8 10 1020.4 - 0.0 - - - - - - -
28/04:00pm 19.4 NNE 9 10 1020.2 - 0.0 - - - - - - -
28/03:30pm 19.8 N 9 10 1020.5 - 0.0 - - - - - - -
28/03:00pm 20.1 NNE 10 11 1020.3 - 0.0 - - - - - - -
28/02:30pm 20.3 NNE 8 9 1020.2 - 0.0 - - - - - - -
28/02:00pm 20.8 NNE 4 6 1020.4 - 0.0 - - - - - - -
28/01:30pm 21.6 NE 6 7 1020.6 - 0.0 - - - - - - -
28/01:00pm 20.9 ENE 5 5 1021.1 - 0.0 - - - - - - -
28/12:30pm 21.9 NE 4 5 1021.6 - 0.0 - - - - - - -
28/12:00pm 21.5 NE 4 5 1021.9 - 0.0 - - - - - - -
28/11:30am 20.9 NE 3 4 1022.5 - 0.0 - - - - - - -
28/11:00am 20.1 N 3 4 1023.0 - 0.0 - - - - - - -
28/10:30am 19.6 N 5 5 1023.3 - 0.0 - - - - - - -
28/10:00am 19.5 NNW 3 4 1023.5 - 0.0 - - - - - - -
28/09:30am 18.4 NW 3 5 1023.6 - 0.0 - - - - - - -
28/09:00am 17.0 NW 3 6 1023.5 - 0.0 - - - - - - -
28/08:30am 16.4 WNW 3 6 1023.4 - 0.0 - - - - - - -
28/08:00am 15.2 W 5 8 1023.0 - 0.0 - - - - - - -
28/07:30am 15.0 W 4 5 1022.9 - 0.0 - - - - - - -
28/07:00am 14.3 W 4 7 1023.0 - 0.0 - - - - - - -
28/06:30am 14.1 WNW 3 6 1022.8 - 0.0 - - - - - - -
28/06:00am 13.4 WNW 5 6 1022.3 - 0.0 - - - - - - -
28/05:30am 13.3 WNW 5 7 1022.1 - 0.0 - - - - - - -
28/05:00am 12.6 WNW 4 6 1022.0 - 0.0 - - - - - - -
28/04:30am 12.6 WNW 5 7 1022.0 - 0.0 - - - - - - -
28/04:00am 13.1 WNW 5 6 1022.1 - 0.0 - - - - - - -
28/03:30am 13.3 NW 4 6 1022.0 - 0.0 - - - - - - -
28/03:00am 13.1 WNW 3 6 1022.2 - 0.0 - - - - - - -
28/02:30am 12.8 WNW 5 6 1022.4 - 0.0 - - - - - - -
28/02:00am 12.7 WNW 5 6 1022.4 - 0.0 - - - - - - -
28/01:30am 12.9 NW 4 5 1022.6 - 0.0 - - - - - - -
28/01:00am 12.8 WNW 4 4 1022.6 - 0.0 - - - - - - -
28/12:30am 13.5 NW 4 5 1022.7 - 0.0 - - - - - - -
28/12:00am 13.9 NNW 3 4 1022.7 - 0.0 - - - - - - -
 
Date/Time
EST
Temp

°C
Wind Pressure Rain
since 9am
mm
Weather Cloud Vis
km
Sea
Height
m
Swell
Dir
 
Speed
knots
Gust
knots
hPa Trend Height
m
Period
s
Dir
27/11:30pm 14.7 W 7 10 1022.7 - 0.0 - - - - - - -
27/11:00pm 14.6 CALM 0 1 1022.8 - 0.0 - - - - - - -
27/10:30pm 14.2 W 1 2 1022.7 - 0.0 - - - - - - -
27/10:00pm 14.4 W 1 3 1022.7 - 0.0 - - - - - - -
27/09:30pm 14.3 NNW 1 2 1022.9 - 0.0 - - - - - - -
27/09:00pm 14.8 NNW 3 4 1022.8 - 0.0 - - - - - - -
27/08:30pm 15.1 CALM 0 2 1022.8 - 0.0 - - - - - - -
27/08:00pm 15.3 NW 3 4 1022.7 - 0.0 - - - - - - -
27/07:30pm 15.6 NW 2 3 1022.7 - 0.0 - - - - - - -
27/07:00pm 15.4 NW 3 5 1022.3 - 0.0 - - - - - - -
27/06:30pm 15.8 NW 3 5 1022.2 - 0.0 - - - - - - -
27/06:00pm 15.9 WNW 3 4 1022.1 - 0.0 - - - - - - -
27/05:30pm 15.9 WNW 3 5 1021.7 - 0.0 - - - - - - -
27/05:00pm 15.9 WNW 3 4 1021.7 - 0.0 - - - - - - -
27/04:30pm 16.8 NW 2 4 1021.7 - 0.0 - - - - - - -
27/04:00pm 17.1 WNW 1 2 1021.8 - 0.0 - - - - - - -
27/03:30pm 17.6 WNW 3 6 1021.8 - 0.0 - - - - - - -
27/03:00pm 18.6 NW 4 8 1021.9 - 0.0 - - - - - - -

Other Formats:

Comma delimited format used in spreadsheet applications
http://www.bom.gov.au/fwo/IDN60701/IDN60701.95770.axf

JavaScript Object Notation format (JSON) in row-major order
http://www.bom.gov.au/fwo/IDN60701/IDN60701.95770.json